Time;durP1;ratioP1;P1;durP2;ratioP2;P2;SDS_P1;SDS_P2;PMS_P1;PMS_P2;Temp;Humidity;BMP_temperature;BMP_pressure;BME280_temperature;BME280_humidity;BME280_pressure;Samples;Min_cycle;Max_cycle;Signal;HPM_P1;HPM_P2
2021/11/10 00:00:25;;;;;;;13.20;6.88;;;;;;;-0.38;100.00;99883.06;5020598;28;19921;-79
2021/11/10 00:02:52;;;;;;;11.40;6.07;;;;;;;-0.31;100.00;99891.53;5027311;28;20444;-78
2021/11/10 00:05:20;;;;;;;12.32;5.68;;;;;;;-0.42;100.00;99892.22;5021719;28;20448;-79
2021/11/10 00:07:47;;;;;;;12.45;6.45;;;;;;;-0.33;100.00;99889.91;5027561;28;20539;-79
2021/11/10 00:10:17;;;;;;;13.18;6.30;;;;;;;-0.26;100.00;99893.91;5028046;28;20092;-79
2021/11/10 00:12:46;;;;;;;13.37;5.87;;;;;;;-0.34;100.00;99894.41;5012457;28;20119;-79
2021/11/10 00:15:13;;;;;;;12.43;6.15;;;;;;;-0.32;100.00;99888.97;5017574;28;20073;-78
2021/11/10 00:17:41;;;;;;;10.38;5.82;;;;;;;-0.47;100.00;99877.44;5028602;28;20065;-78
2021/11/10 00:20:10;;;;;;;11.70;6.03;;;;;;;-0.41;100.00;99874.38;5023077;28;20052;-79
2021/11/10 00:22:39;;;;;;;15.13;5.78;;;;;;;-0.37;100.00;99879.41;5031848;28;20103;-79
2021/11/10 00:25:08;;;;;;;11.85;6.57;;;;;;;-0.40;100.00;99882.28;5026693;28;20055;-78
2021/11/10 00:27:34;;;;;;;11.75;5.90;;;;;;;-0.43;100.00;99892.31;5022141;28;20417;-79
2021/11/10 00:30:04;;;;;;;11.75;5.75;;;;;;;-0.36;100.00;99886.50;5024111;28;20478;-79
2021/11/10 00:32:31;;;;;;;8.82;5.43;;;;;;;-0.40;100.00;99895.66;5031378;28;20054;-79
2021/11/10 00:34:58;;;;;;;9.10;5.38;;;;;;;-0.46;100.00;99903.19;5019190;28;20045;-79
2021/11/10 00:37:25;;;;;;;10.03;5.97;;;;;;;-0.55;100.00;99902.81;5028839;28;20041;-78
2021/11/10 00:39:51;;;;;;;11.57;4.97;;;;;;;-0.62;100.00;99890.78;5031400;28;20041;-79
2021/11/10 00:42:18;;;;;;;13.03;5.03;;;;;;;-0.52;100.00;99907.09;5020591;28;20046;-78
2021/11/10 00:44:45;;;;;;;9.57;5.10;;;;;;;-0.51;100.00;99918.63;5015863;28;20041;-79
2021/11/10 00:47:13;;;;;;;12.33;5.40;;;;;;;-0.56;100.00;99908.25;5029308;28;20088;-79
2021/11/10 00:49:40;;;;;;;10.57;5.97;;;;;;;-0.60;100.00;99923.63;5030718;28;20052;-79
2021/11/10 00:52:07;;;;;;;11.90;6.30;;;;;;;-0.58;100.00;99932.38;5029152;28;20046;-78
2021/11/10 00:54:34;;;;;;;15.33;6.63;;;;;;;-0.66;100.00;99909.75;5019911;28;20503;-79
2021/11/10 00:57:01;;;;;;;10.03;5.53;;;;;;;-0.32;100.00;99918.34;5017278;28;20080;-78
2021/11/10 00:59:28;;;;;;;13.77;5.73;;;;;;;-0.36;100.00;99929.25;5020389;28;20041;-79
2021/11/10 01:01:54;;;;;;;10.63;5.90;;;;;;;-0.44;100.00;99907.47;5022516;28;20085;-79
2021/11/10 01:04:22;;;;;;;9.00;5.53;;;;;;;-0.36;100.00;99915.03;5020114;28;20054;-78
2021/11/10 01:06:49;;;;;;;10.17;5.63;;;;;;;-0.45;100.00;99889.75;5012108;28;20070;-79
2021/11/10 01:09:17;;;;;;;10.87;6.10;;;;;;;-0.28;100.00;99893.16;5020904;28;20057;-78
2021/11/10 01:11:45;;;;;;;12.20;5.78;;;;;;;-0.21;100.00;99895.34;5025349;28;20045;-79
2021/11/10 01:14:12;;;;;;;9.95;5.63;;;;;;;-0.32;100.00;99865.75;5028679;28;20489;-79
2021/11/10 01:16:39;;;;;;;9.87;6.00;;;;;;;-0.15;100.00;99888.75;5016406;28;20533;-78
2021/11/10 01:19:06;;;;;;;10.27;5.20;;;;;;;-0.27;100.00;99876.16;5016317;28;20509;-79
2021/11/10 01:21:35;;;;;;;11.48;5.40;;;;;;;-0.27;100.00;99885.03;5033858;28;20489;-78
2021/11/10 01:24:02;;;;;;;12.03;5.50;;;;;;;-0.26;100.00;99896.59;5033991;28;20547;-78
2021/11/10 01:26:29;;;;;;;7.85;4.60;;;;;;;-0.28;100.00;99882.47;5026539;28;20411;-79
2021/11/10 01:28:56;;;;;;;8.93;5.60;;;;;;;-0.38;100.00;99869.72;5029116;28;20042;-78
2021/11/10 01:31:23;;;;;;;7.33;4.67;;;;;;;-0.40;100.00;99881.44;5032635;28;20092;-78
2021/11/10 01:33:49;;;;;;;10.50;5.30;;;;;;;-0.43;100.00;99874.47;5034065;28;20092;-79
2021/11/10 01:36:17;;;;;;;9.73;5.25;;;;;;;-0.34;100.00;99883.72;5034332;28;20126;-78
2021/11/10 01:38:45;;;;;;;9.43;4.65;;;;;;;-0.44;100.00;99866.56;5028686;28;20038;-78
2021/11/10 01:41:13;;;;;;;10.43;4.80;;;;;;;-0.40;100.00;99890.31;5026017;28;20045;-78
2021/11/10 01:43:39;;;;;;;10.30;4.87;;;;;;;-0.47;100.00;99885.44;5035151;28;20068;-78
2021/11/10 01:46:06;;;;;;;9.50;5.17;;;;;;;-0.59;100.00;99884.41;5025954;28;20053;-78
2021/11/10 01:48:33;;;;;;;10.93;5.27;;;;;;;-0.62;100.00;99876.59;5027786;28;20452;-78
2021/11/10 01:51:00;;;;;;;13.50;5.57;;;;;;;-0.71;100.00;99859.31;5014707;28;20054;-78
2021/11/10 01:53:28;;;;;;;6.75;5.05;;;;;;;-0.50;100.00;99880.28;5023398;28;20107;-78
2021/11/10 01:55:56;;;;;;;7.23;5.03;;;;;;;-0.62;100.00;99857.88;5015441;28;20042;-78
2021/11/10 01:58:23;;;;;;;7.07;4.75;;;;;;;-0.53;100.00;99873.31;5020937;28;20455;-78
2021/11/10 02:00:50;;;;;;;15.10;5.93;;;;;;;-0.54;100.00;99867.13;5028815;28;20042;-78
2021/11/10 02:03:17;;;;;;;12.57;5.50;;;;;;;-0.56;100.00;99866.38;5028967;28;20083;-78
2021/11/10 02:05:44;;;;;;;14.80;6.10;;;;;;;-0.52;100.00;99855.50;5023382;28;20425;-78
2021/11/10 02:08:11;;;;;;;11.10;5.43;;;;;;;-0.47;100.00;99850.72;5023136;28;20081;-79
2021/11/10 02:10:37;;;;;;;11.97;5.97;;;;;;;-0.62;100.00;99853.38;5032748;28;20111;-79
2021/11/10 02:13:07;;;;;;;9.75;5.10;;;;;;;-0.55;100.00;99854.72;5019782;28;20485;-78
2021/11/10 02:15:35;;;;;;;8.07;4.97;;;;;;;-0.57;100.00;99848.63;5021010;28;20054;-78
2021/11/10 02:18:04;;;;;;;10.90;4.97;;;;;;;-0.63;100.00;99835.69;5025287;28;20057;-79
2021/11/10 02:20:34;;;;;;;12.00;5.47;;;;;;;-0.61;100.00;99819.56;5029667;28;20054;-79
2021/11/10 02:23:06;;;;;;;11.33;5.30;;;;;;;-0.65;100.00;99810.00;5033779;28;20050;-79
2021/11/10 02:25:33;;;;;;;10.87;4.87;;;;;;;-0.66;100.00;99819.84;5027862;28;20065;-78
2021/11/10 02:28:00;;;;;;;12.10;5.47;;;;;;;-0.82;100.00;99825.28;5030999;28;20148;-79
2021/11/10 02:30:28;;;;;;;8.27;4.87;;;;;;;-0.93;100.00;99806.44;5029275;28;20128;-79
2021/11/10 02:32:57;;;;;;;12.90;5.57;;;;;;;-0.92;100.00;99808.13;5013319;28;20119;-79
2021/11/10 02:35:25;;;;;;;7.50;4.67;;;;;;;-0.91;100.00;99821.38;5028268;28;20152;-79
2021/11/10 02:37:54;;;;;;;10.90;5.33;;;;;;;-0.93;100.00;99819.78;5030459;28;20076;-78
2021/11/10 02:40:23;;;;;;;9.97;5.03;;;;;;;-0.84;100.00;99826.31;5020483;28;20092;-79
2021/11/10 02:42:51;;;;;;;9.03;4.83;;;;;;;-0.94;100.00;99804.69;5022778;28;20041;-79
2021/11/10 02:45:18;;;;;;;10.23;5.33;;;;;;;-0.97;100.00;99812.91;5024554;28;20085;-79
2021/11/10 02:47:44;;;;;;;8.13;4.93;;;;;;;-0.96;100.00;99809.28;5033068;28;20049;-79
2021/11/10 02:50:12;;;;;;;6.43;4.17;;;;;;;-0.96;100.00;99815.47;5025469;28;20560;-78
2021/11/10 02:52:39;;;;;;;8.40;4.80;;;;;;;-0.79;100.00;99806.41;5028397;28;20045;-79
2021/11/10 02:55:07;;;;;;;11.50;5.00;;;;;;;-0.89;100.00;99797.25;5032320;28;20053;-79
2021/11/10 02:57:36;;;;;;;11.93;5.20;;;;;;;-1.02;100.00;99815.84;5019542;28;20100;-79
2021/11/10 03:00:05;;;;;;;10.33;4.20;;;;;;;-1.16;100.00;99815.84;5021389;28;20515;-79
2021/11/10 03:02:32;;;;;;;10.10;5.00;;;;;;;-1.13;100.00;99813.84;5020490;28;20124;-79
2021/11/10 03:05:00;;;;;;;8.60;4.43;;;;;;;-1.20;100.00;99809.84;5016952;28;20050;-79
2021/11/10 03:07:27;;;;;;;6.40;4.40;;;;;;;-1.19;100.00;99816.03;5030897;28;20069;-79
2021/11/10 03:09:54;;;;;;;10.63;5.23;;;;;;;-1.18;100.00;99801.75;5028823;28;20120;-78
2021/11/10 03:12:21;;;;;;;6.60;4.77;;;;;;;-1.16;100.00;99813.16;5029684;28;20096;-78
2021/11/10 03:14:51;;;;;;;16.23;5.90;;;;;;;-1.31;100.00;99790.97;5030452;28;20081;-79
2021/11/10 03:17:19;;;;;;;10.87;4.90;;;;;;;-1.07;100.00;99816.16;5024786;28;20073;-78
2021/11/10 03:19:47;;;;;;;10.90;4.07;;;;;;;-1.18;100.00;99813.25;5032579;28;20103;-78
2021/11/10 03:22:15;;;;;;;9.40;4.27;;;;;;;-1.20;100.00;99815.19;5032654;28;20124;-79
2021/11/10 03:24:42;;;;;;;8.53;4.80;;;;;;;-1.37;100.00;99791.34;5026591;28;20077;-79
2021/11/10 03:27:09;;;;;;;9.73;5.47;;;;;;;-1.21;100.00;99801.94;5015423;28;20046;-79
2021/11/10 03:29:36;;;;;;;5.87;4.40;;;;;;;-1.28;100.00;99783.63;5030168;28;20076;-79
2021/11/10 03:32:07;;;;;;;10.53;4.57;;;;;;;-1.37;100.00;99788.66;5027614;28;20069;-79
2021/11/10 03:34:33;;;;;;;6.83;4.63;;;;;;;-1.43;100.00;99792.56;5024497;28;20208;-78
2021/11/10 03:37:01;;;;;;;10.23;4.77;;;;;;;-1.36;100.00;99798.41;5027007;28;20061;-78
2021/11/10 03:39:28;;;;;;;7.23;4.57;;;;;;;-1.48;100.00;99798.16;5028029;28;20194;-79
2021/11/10 03:41:55;;;;;;;9.73;5.20;;;;;;;-1.48;100.00;99803.50;5032001;28;20053;-79
2021/11/10 03:44:23;;;;;;;10.93;6.17;;;;;;;-1.34;100.00;99807.16;5028763;28;20480;-79
2021/11/10 03:46:50;;;;;;;10.13;4.50;;;;;;;-1.47;100.00;99791.91;5024215;28;20107;-78
2021/11/10 03:49:19;;;;;;;8.93;4.90;;;;;;;-1.38;100.00;99810.97;5014714;28;20049;-79
2021/11/10 03:51:46;;;;;;;10.93;4.50;;;;;;;-1.50;100.00;99797.41;5031516;28;20048;-78
2021/11/10 03:54:13;;;;;;;8.73;4.70;;;;;;;-1.41;100.00;99800.50;5019340;28;20072;-78
2021/11/10 03:56:40;;;;;;;9.30;4.70;;;;;;;-1.42;100.00;99804.94;5027819;28;20488;-79
2021/11/10 03:59:07;;;;;;;10.03;4.80;;;;;;;-1.35;100.00;99813.47;5022160;28;20489;-78
2021/11/10 04:01:33;;;;;;;10.37;4.87;;;;;;;-1.40;100.00;99797.72;5025643;28;20448;-79
2021/11/10 04:04:01;;;;;;;12.30;5.20;;;;;;;-1.38;100.00;99809.16;5029550;28;20103;-79
2021/11/10 04:06:30;;;;;;;9.47;5.20;;;;;;;-1.43;100.00;99804.09;5023289;28;20061;-79
2021/11/10 04:08:57;;;;;;;7.37;4.57;;;;;;;-1.46;100.00;99812.28;5031524;28;20123;-79
2021/11/10 04:11:24;;;;;;;12.93;4.83;;;;;;;-1.40;100.00;99819.06;5022188;28;20100;-79
2021/11/10 04:13:51;;;;;;;8.83;5.33;;;;;;;-1.44;100.00;99834.38;5031678;28;20344;-79
2021/11/10 04:16:22;;;;;;;7.77;4.73;;;;;;;-1.48;100.00;99822.19;5024233;28;20505;-79
2021/11/10 04:18:50;;;;;;;7.77;4.93;;;;;;;-1.45;100.00;99831.81;5027994;28;20115;-79
2021/11/10 04:21:18;;;;;;;11.80;4.93;;;;;;;-1.46;100.00;99825.63;5031029;28;20505;-79
2021/11/10 04:23:50;;;;;;;10.20;5.00;;;;;;;-1.47;100.00;99833.72;5029418;28;20101;-79
2021/11/10 04:26:17;;;;;;;7.17;4.60;;;;;;;-1.61;100.00;99822.06;5028811;28;20061;-79
2021/11/10 04:28:44;;;;;;;8.57;4.97;;;;;;;-1.52;100.00;99827.78;5024207;28;20057;-79
2021/11/10 04:31:11;;;;;;;7.43;4.60;;;;;;;-1.56;100.00;99815.59;5012091;28;20078;-79
2021/11/10 04:33:38;;;;;;;15.90;5.50;;;;;;;-1.65;100.00;99806.34;5020175;28;20045;-79
2021/11/10 04:36:06;;;;;;;8.83;4.17;;;;;;;-1.68;100.00;99799.38;5030675;28;20100;-79
2021/11/10 04:38:33;;;;;;;11.00;5.20;;;;;;;-1.61;100.00;99811.41;5021343;28;20108;-79
2021/11/10 04:41:01;;;;;;;9.07;5.33;;;;;;;-1.70;100.00;99813.75;5013865;28;20054;-79
2021/11/10 04:43:28;;;;;;;6.40;4.37;;;;;;;-1.64;100.00;99813.38;5026775;28;20061;-79
2021/11/10 04:46:02;;;;;;;9.93;4.77;;;;;;;-1.73;100.00;99803.25;5031726;28;20437;-79
2021/11/10 04:48:29;;;;;;;11.80;4.60;;;;;;;-1.68;100.00;99817.19;5026604;28;20556;-79
2021/11/10 04:50:56;;;;;;;15.83;5.23;;;;;;;-1.72;100.00;99827.16;5028091;28;20053;-79
2021/11/10 04:53:22;;;;;;;7.00;4.43;;;;;;;-1.79;100.00;99825.84;5017987;28;20050;-79
2021/11/10 04:55:50;;;;;;;8.53;5.23;;;;;;;-1.71;100.00;99844.03;5015860;28;20046;-79
2021/11/10 04:58:18;;;;;;;8.33;4.47;;;;;;;-1.73;100.00;99845.91;5028121;28;20398;-79
2021/11/10 05:00:46;;;;;;;7.70;4.80;;;;;;;-1.69;100.00;99844.78;5019370;28;20468;-79
2021/11/10 05:03:13;;;;;;;7.97;4.30;;;;;;;-1.58;100.00;99833.50;5037038;28;20125;-78
2021/11/10 05:05:40;;;;;;;16.10;5.03;;;;;;;-1.67;100.00;99827.75;5031068;28;20452;-80
2021/11/10 05:08:07;;;;;;;6.03;4.53;;;;;;;-1.74;100.00;99822.91;5030791;28;20072;-79
2021/11/10 05:10:34;;;;;;;8.93;4.87;;;;;;;-1.81;100.00;99807.25;5031549;28;20129;-79
2021/11/10 05:13:01;;;;;;;13.17;4.70;;;;;;;-1.83;100.00;99809.13;5024717;28;20042;-80
2021/11/10 05:15:29;;;;;;;8.17;4.93;;;;;;;-1.86;100.00;99814.66;5035186;28;20045;-79
2021/11/10 05:17:56;;;;;;;6.77;4.30;;;;;;;-1.88;100.00;99819.22;5035162;28;20130;-79
2021/11/10 05:20:22;;;;;;;6.83;4.67;;;;;;;-1.85;100.00;99815.50;5019302;28;20602;-79
2021/11/10 05:22:49;;;;;;;8.10;4.60;;;;;;;-1.89;100.00;99816.66;5015272;28;20089;-82
2021/11/10 05:25:16;;;;;;;9.10;4.80;;;;;;;-1.94;100.00;99786.72;5025782;28;20045;-83
2021/11/10 05:27:43;;;;;;;9.87;5.00;;;;;;;-1.87;100.00;99802.25;5034272;28;20560;-80
2021/11/10 05:30:15;;;;;;;6.40;4.83;;;;;;;-1.80;100.00;99797.44;5033543;28;20049;-82
2021/11/10 05:33:00;;;;;;;19.03;5.20;;;;;;;-1.95;100.00;99793.88;5035305;28;20125;-81
2021/11/10 05:35:30;;;;;;;10.47;4.83;;;;;;;-1.90;100.00;99798.94;5016859;28;20117;-81
2021/11/10 05:38:03;;;;;;;12.37;5.60;;;;;;;-1.94;100.00;99803.59;5015299;28;20058;-80
2021/11/10 05:40:31;;;;;;;13.30;6.00;;;;;;;-1.99;100.00;99811.88;5022518;28;20097;-81
2021/11/10 05:42:58;;;;;;;7.90;4.80;;;;;;;-2.07;100.00;99791.94;5029715;28;20061;-80
2021/11/10 05:45:25;;;;;;;7.87;4.77;;;;;;;-1.95;100.00;99807.19;5033284;28;20474;-80
2021/11/10 05:47:54;;;;;;;11.27;5.07;;;;;;;-2.08;100.00;99792.88;5027540;28;20104;-81
2021/11/10 05:50:20;;;;;;;13.20;6.10;;;;;;;-2.02;100.00;99817.38;5028005;28;20072;-80
2021/11/10 05:52:50;;;;;;;9.20;5.37;;;;;;;-1.98;100.00;99823.38;5024986;28;20042;-80
2021/11/10 05:55:17;;;;;;;11.00;4.93;;;;;;;-2.09;100.00;99808.00;5014820;28;20049;-80
2021/11/10 05:57:47;;;;;;;13.27;5.27;;;;;;;-1.99;100.00;99805.66;5018557;28;20056;-80
2021/11/10 06:00:14;;;;;;;12.17;5.63;;;;;;;-1.92;100.00;99820.34;5014410;28;20061;-80
2021/11/10 06:02:42;;;;;;;9.77;5.30;;;;;;;-1.87;100.00;99833.41;5017622;28;20053;-80
2021/11/10 06:05:14;;;;;;;8.57;5.17;;;;;;;-2.02;100.00;99817.38;5029727;28;20041;-80
2021/11/10 06:07:40;;;;;;;9.60;4.67;;;;;;;-2.12;100.00;99808.19;5030318;28;20046;-80
2021/11/10 06:10:08;;;;;;;10.47;5.77;;;;;;;-2.06;100.00;99826.47;5014356;28;20050;-80
2021/11/10 06:12:34;;;;;;;10.70;4.80;;;;;;;-2.09;100.00;99825.78;5014955;28;20092;-80
2021/11/10 06:15:01;;;;;;;6.53;4.70;;;;;;;-2.11;100.00;99820.53;5024048;28;20053;-81
2021/11/10 06:17:28;;;;;;;7.07;4.47;;;;;;;-2.17;100.00;99835.09;5021137;28;20051;-80
2021/11/10 06:19:55;;;;;;;9.50;5.67;;;;;;;-2.20;100.00;99837.94;5028345;28;20464;-80
2021/11/10 06:22:23;;;;;;;10.07;5.87;;;;;;;-2.22;100.00;99842.47;5030664;28;20548;-80
2021/11/10 06:24:50;;;;;;;15.50;6.60;;;;;;;-2.10;100.00;99846.25;5027028;28;20103;-80
2021/11/10 06:27:16;;;;;;;9.47;5.93;;;;;;;-2.15;100.00;99827.84;5019397;28;20057;-80
2021/11/10 06:29:43;;;;;;;12.90;5.93;;;;;;;-2.00;100.00;99825.28;5014098;28;20054;-80
2021/11/10 06:32:10;;;;;;;10.23;6.23;;;;;;;-1.99;100.00;99821.63;5018825;28;20041;-80
2021/11/10 06:34:37;;;;;;;11.47;5.50;;;;;;;-2.00;100.00;99828.78;5028424;28;20049;-80
2021/11/10 06:37:05;;;;;;;8.80;4.57;;;;;;;-2.17;100.00;99828.88;5022082;28;20054;-81
2021/11/10 06:39:34;;;;;;;11.60;5.77;;;;;;;-2.12;100.00;99821.50;5024602;28;20124;-81
2021/11/10 06:42:00;;;;;;;7.63;4.83;;;;;;;-2.08;100.00;99828.34;5028910;28;20088;-80
2021/11/10 06:44:27;;;;;;;9.40;5.53;;;;;;;-2.10;100.00;99829.41;5025781;28;20049;-80
2021/11/10 06:46:59;;;;;;;10.70;5.43;;;;;;;-2.11;100.00;99833.00;5032442;28;20481;-80
2021/11/10 06:49:25;;;;;;;10.70;5.23;;;;;;;-2.01;100.00;99844.88;5031493;28;20053;-80
2021/11/10 06:51:52;;;;;;;9.77;5.57;;;;;;;-2.08;100.00;99846.16;5033521;28;20107;-80
2021/11/10 06:54:19;;;;;;;19.20;5.03;;;;;;;-2.02;100.00;99854.69;5032914;28;20057;-80
2021/11/10 06:56:48;;;;;;;13.27;7.27;;;;;;;-2.02;100.00;99840.47;5032172;28;20464;-80
2021/11/10 06:59:15;;;;;;;9.10;6.20;;;;;;;-1.96;100.00;99845.44;5031919;28;20046;-80
2021/11/10 07:01:42;;;;;;;14.13;5.53;;;;;;;-1.90;100.00;99858.41;5032941;28;20092;-80
2021/11/10 07:04:09;;;;;;;12.23;5.43;;;;;;;-1.94;100.00;99851.56;5025534;28;20065;-80
2021/11/10 07:06:36;;;;;;;9.57;6.10;;;;;;;-1.84;100.00;99841.22;5035323;28;20526;-80
2021/11/10 07:09:05;;;;;;;10.20;6.57;;;;;;;-1.78;100.00;99832.84;5037696;28;20049;-80
2021/11/10 07:11:34;;;;;;;13.55;6.47;;;;;;;-1.73;100.00;99832.59;5034006;28;20076;-81
2021/11/10 07:14:03;;;;;;;11.10;5.93;;;;;;;-1.64;100.00;99846.25;5015967;28;20045;-81
2021/11/10 07:16:30;;;;;;;12.30;6.63;;;;;;;-1.62;100.00;99844.34;5014494;28;20142;-81
2021/11/10 07:18:57;;;;;;;12.43;6.83;;;;;;;-1.70;100.00;99835.06;5014381;28;20100;-80
2021/11/10 07:21:23;;;;;;;14.63;8.07;;;;;;;-1.54;100.00;99841.22;5015775;28;20137;-80
2021/11/10 07:23:50;;;;;;;12.73;7.47;;;;;;;-1.57;100.00;99829.88;5014352;28;20072;-80
2021/11/10 07:26:17;;;;;;;15.13;8.93;;;;;;;-1.51;100.00;99850.84;5029478;28;20100;-80
2021/11/10 07:28:44;;;;;;;16.93;8.33;;;;;;;-1.56;100.00;99836.94;5014291;28;20551;-80
2021/11/10 07:31:12;;;;;;;27.43;12.20;;;;;;;-1.28;100.00;99853.00;5028219;28;20115;-80
2021/11/10 07:33:39;;;;;;;17.67;9.33;;;;;;;-1.25;100.00;99865.28;5032157;28;20088;-80
2021/11/10 07:36:06;;;;;;;16.50;9.10;;;;;;;-1.30;100.00;99846.03;5031878;28;20055;-80
2021/11/10 07:38:39;;;;;;;15.03;8.20;;;;;;;-1.29;100.00;99845.94;5032128;28;20041;-80
2021/11/10 07:41:06;;;;;;;12.47;8.13;;;;;;;-1.03;100.00;99859.50;5032292;28;20053;-80
2021/11/10 07:43:33;;;;;;;17.23;8.47;;;;;;;-1.02;100.00;99855.91;5031789;28;20058;-80
2021/11/10 07:46:05;;;;;;;17.13;7.47;;;;;;;-0.97;100.00;99853.78;5031542;28;20068;-80
2021/11/10 07:48:34;;;;;;;72.87;25.70;;;;;;;-0.85;100.00;99833.50;5031112;28;20038;-80
2021/11/10 07:51:01;;;;;;;32.30;15.17;;;;;;;-0.77;100.00;99852.56;5032014;28;20049;-80
2021/11/10 07:53:28;;;;;;;17.27;9.47;;;;;;;-0.64;100.00;99857.13;5032111;28;20085;-79
2021/11/10 07:55:54;;;;;;;17.93;9.30;;;;;;;-0.54;100.00;99844.94;5032263;28;20112;-80
2021/11/10 07:58:21;;;;;;;16.17;8.73;;;;;;;-0.48;100.00;99840.97;5032272;28;20107;-79
2021/11/10 08:00:48;;;;;;;17.00;9.43;;;;;;;-0.44;100.00;99842.50;5032384;28;20142;-79
2021/11/10 08:03:15;;;;;;;14.70;7.47;;;;;;;-0.41;100.00;99853.00;5030752;28;20099;-79
2021/11/10 08:05:43;;;;;;;13.25;7.90;;;;;;;-0.36;100.00;99851.75;5031966;28;20111;-80
2021/11/10 08:08:10;;;;;;;13.85;7.70;;;;;;;-0.24;100.00;99834.06;5032166;28;20053;-79
2021/11/10 08:10:36;;;;;;;17.77;8.47;;;;;;;-0.19;100.00;99839.13;5031992;28;20471;-79
2021/11/10 08:13:03;;;;;;;16.30;7.87;;;;;;;-0.24;100.00;99842.09;5032134;28;20049;-79
2021/11/10 08:15:30;;;;;;;15.38;7.95;;;;;;;-0.14;100.00;99844.16;5032184;28;20095;-79
2021/11/10 08:17:57;;;;;;;13.60;7.50;;;;;;;-0.04;100.00;99843.47;5032095;28;20061;-80
2021/11/10 08:20:24;;;;;;;13.93;7.85;;;;;;;0.05;100.00;99852.69;5030706;28;20510;-80
2021/11/10 08:22:52;;;;;;;17.60;7.70;;;;;;;0.20;100.00;99856.16;5031891;28;20056;-80
2021/11/10 08:25:19;;;;;;;20.13;8.68;;;;;;;0.26;100.00;99863.78;5035897;28;20405;-80
2021/11/10 08:27:47;;;;;;;17.40;8.50;;;;;;;0.28;100.00;99845.81;5036204;28;20049;-80
2021/11/10 08:30:17;;;;;;;16.23;7.65;;;;;;;0.42;100.00;99849.38;5036127;28;20493;-80
2021/11/10 08:32:44;;;;;;;15.30;7.90;;;;;;;0.51;100.00;99856.78;5035328;28;20045;-79
2021/11/10 08:35:11;;;;;;;16.38;8.60;;;;;;;0.57;100.00;99859.03;5035524;28;20493;-79
2021/11/10 08:37:39;;;;;;;20.77;10.40;;;;;;;0.52;100.00;99845.13;5034579;28;20049;-79
2021/11/10 08:40:09;;;;;;;17.05;8.23;;;;;;;0.69;100.00;99860.03;5035515;28;20437;-80
2021/11/10 08:42:37;;;;;;;16.80;8.55;;;;;;;0.67;100.00;99860.13;5035886;28;20376;-79
2021/11/10 08:45:06;;;;;;;11.18;7.55;;;;;;;0.70;100.00;99845.69;5035802;28;20053;-80
2021/11/10 08:47:33;;;;;;;19.35;9.00;;;;;;;0.87;100.00;99855.22;5035473;28;20049;-80
2021/11/10 08:50:00;;;;;;;17.38;9.70;;;;;;;0.90;100.00;99864.88;5035223;28;20546;-80
2021/11/10 08:52:27;;;;;;;18.40;8.57;;;;;;;0.64;100.00;99857.66;5034225;28;20154;-80
2021/11/10 08:54:54;;;;;;;25.85;8.93;;;;;;;0.69;100.00;99862.69;5035621;28;20552;-80
2021/11/10 08:57:23;;;;;;;17.55;8.90;;;;;;;0.78;100.00;99870.09;5035652;28;20049;-80
2021/11/10 08:59:50;;;;;;;27.77;10.38;;;;;;;0.85;100.00;99881.25;5035603;28;20075;-81
2021/11/10 09:02:17;;;;;;;14.00;8.80;;;;;;;0.97;100.00;99874.22;5035605;28;20107;-79
2021/11/10 09:04:43;;;;;;;16.23;9.60;;;;;;;1.01;100.00;99871.22;5035216;28;20451;-80
2021/11/10 09:07:10;;;;;;;15.75;9.32;;;;;;;1.05;100.00;99863.81;5035560;28;20061;-80
2021/11/10 09:09:37;;;;;;;19.00;9.38;;;;;;;1.22;100.00;99881.41;5032553;28;20606;-80
2021/11/10 09:12:05;;;;;;;18.20;8.98;;;;;;;1.17;100.00;99868.28;5026655;28;20092;-80
2021/11/10 09:14:33;;;;;;;18.83;9.55;;;;;;;1.33;100.00;99873.44;5035369;28;20481;-81
2021/11/10 09:17:01;;;;;;;18.48;9.02;;;;;;;1.39;100.00;99877.53;5033772;28;20540;-80
2021/11/10 09:19:28;;;;;;;19.88;9.43;;;;;;;1.52;100.00;99888.19;5035211;28;20045;-80
2021/11/10 09:21:55;;;;;;;19.70;9.68;;;;;;;1.52;100.00;99886.41;5034843;28;20081;-81
2021/11/10 09:24:21;;;;;;;19.30;9.43;;;;;;;1.46;100.00;99875.25;5035196;28;20045;-81
2021/11/10 09:26:49;;;;;;;15.18;9.10;;;;;;;1.54;100.00;99878.25;5034914;28;20300;-81
2021/11/10 09:29:19;;;;;;;17.25;8.70;;;;;;;1.61;100.00;99874.13;5034868;28;20108;-80
2021/11/10 09:31:48;;;;;;;18.02;9.10;;;;;;;1.62;100.00;99880.38;5034461;28;20139;-80
2021/11/10 09:34:16;;;;;;;23.50;9.55;;;;;;;1.67;100.00;99879.09;5032393;28;20131;-81
2021/11/10 09:36:46;;;;;;;17.40;10.18;;;;;;;1.83;100.00;99875.28;5027507;28;20232;-80
2021/11/10 09:39:15;;;;;;;18.23;9.82;;;;;;;1.89;100.00;99853.38;5034830;28;20481;-81
2021/11/10 09:41:42;;;;;;;18.98;9.23;;;;;;;2.07;100.00;99873.47;5034471;28;20049;-81
2021/11/10 09:44:10;;;;;;;20.38;10.23;;;;;;;2.26;100.00;99870.31;5034543;28;20524;-81
2021/11/10 09:46:38;;;;;;;16.45;9.98;;;;;;;2.48;100.00;99861.50;5034233;28;20390;-81
2021/11/10 09:49:06;;;;;;;19.17;9.60;;;;;;;2.55;100.00;99855.66;5034635;28;20095;-81
2021/11/10 09:51:34;;;;;;;18.58;11.05;;;;;;;2.74;100.00;99852.41;5032445;28;20041;-81
2021/11/10 09:54:03;;;;;;;20.02;11.68;;;;;;;2.83;100.00;99844.53;5034512;28;20049;-81
2021/11/10 09:56:30;;;;;;;18.33;10.63;;;;;;;2.85;100.00;99844.41;5033118;28;20084;-81
2021/11/10 09:58:57;;;;;;;21.55;10.68;;;;;;;3.00;100.00;99859.31;5034225;28;20045;-81
2021/11/10 10:01:25;;;;;;;16.95;10.25;;;;;;;2.99;100.00;99843.31;5034114;28;20052;-80
2021/11/10 10:03:52;;;;;;;20.38;10.82;;;;;;;3.25;100.00;99861.91;5034239;28;20053;-80
2021/11/10 10:06:22;;;;;;;23.45;12.85;;;;;;;3.27;100.00;99849.22;5034256;28;20053;-81
2021/11/10 10:08:49;;;;;;;26.48;13.00;;;;;;;3.43;100.00;99859.59;5033861;28;20452;-81
2021/11/10 10:11:16;;;;;;;24.40;13.45;;;;;;;3.50;100.00;99860.81;5034365;28;20045;-80
2021/11/10 10:13:43;;;;;;;22.02;12.43;;;;;;;3.47;100.00;99834.19;5032699;28;20037;-81
2021/11/10 10:16:11;;;;;;;24.33;12.93;;;;;;;3.66;100.00;99853.25;5033682;28;20492;-81
2021/11/10 10:18:38;;;;;;;25.58;13.23;;;;;;;3.71;100.00;99844.81;5032867;28;20050;-81
2021/11/10 10:21:07;;;;;;;27.58;13.63;;;;;;;3.65;100.00;99821.09;5034011;28;20058;-81
2021/11/10 10:23:37;;;;;;;22.98;12.60;;;;;;;3.77;100.00;99825.47;5034139;28;20513;-81
2021/11/10 10:26:08;;;;;;;24.63;12.43;;;;;;;3.90;100.00;99845.00;5033610;28;20187;-80
2021/11/10 10:28:38;;;;;;;23.98;13.52;;;;;;;3.97;100.00;99845.34;5032869;28;20056;-81
2021/11/10 10:31:07;;;;;;;25.60;13.45;;;;;;;3.92;100.00;99836.81;5025511;28;20058;-81
2021/11/10 10:33:37;;;;;;;22.05;11.75;;;;;;;3.86;100.00;99823.88;5032780;28;20046;-81
2021/11/10 10:36:07;;;;;;;21.65;11.77;;;;;;;4.11;100.00;99854.13;5033303;28;20049;-81
2021/11/10 10:38:38;;;;;;;22.73;12.00;;;;;;;3.99;100.00;99816.50;5033608;28;20053;-81
2021/11/10 10:41:07;;;;;;;24.90;11.65;;;;;;;4.09;100.00;99838.13;5033095;28;20045;-81
2021/11/10 10:43:40;;;;;;;29.05;11.80;;;;;;;4.22;100.00;99841.50;5032597;28;20060;-81
2021/11/10 10:46:08;;;;;;;24.65;12.00;;;;;;;4.24;100.00;99836.84;5030917;28;20045;-81
2021/11/10 10:48:37;;;;;;;25.83;12.52;;;;;;;4.19;100.00;99822.91;5033035;28;20081;-81
2021/11/10 10:51:07;;;;;;;24.30;11.45;;;;;;;4.20;100.00;99815.69;5033019;28;20096;-81
2021/11/10 10:53:43;;;;;;;21.92;11.60;;;;;;;4.29;100.00;99798.78;5032171;28;20049;-81
2021/11/10 10:56:23;;;;;;;22.00;12.50;;;;;;;4.37;100.00;99798.13;5033034;28;20104;-81
2021/11/10 10:58:51;;;;;;;25.17;12.40;;;;;;;4.51;100.00;99813.13;5033329;28;20076;-81
2021/11/10 11:01:21;;;;;;;19.02;11.43;;;;;;;4.53;100.00;99801.25;5033097;28;20481;-81
2021/11/10 11:03:53;;;;;;;20.95;11.52;;;;;;;4.63;100.00;99805.84;5032759;28;20041;-81
2021/11/10 11:06:43;;;;;;;25.20;11.32;;;;;;;4.59;100.00;99787.25;5033140;28;20128;-81
2021/11/10 11:09:32;;;;;;;23.70;11.68;;;;;;;4.75;100.00;99791.31;5030729;28;20073;-81
2021/11/10 11:12:19;;;;;;;22.58;12.50;;;;;;;4.82;100.00;99780.84;5028209;28;20061;-81
2021/11/10 11:15:24;;;;;;;19.27;11.07;;;;;;;4.97;100.00;99784.94;5032436;28;20092;-81
2021/11/10 11:21:57;;;;;;;27.15;13.80;;;;;;;5.18;100.00;99784.88;5029611;28;20045;-82
2021/11/10 11:25:16;;;;;;;22.85;12.45;;;;;;;5.33;100.00;99777.28;5031596;28;20049;-81
2021/11/10 11:48:58;;;;;;;21.30;12.10;;;;;;;5.73;95.08;99780.94;4992866;28;20508;-81